createdAt,value
2022-09-06T02:46:13.753Z,78.23
2022-09-06T02:47:14.030Z,78.88
2022-09-06T02:48:14.225Z,79.79
2022-09-06T02:49:13.758Z,80.19
2022-09-06T02:50:13.603Z,79.99
2022-09-06T02:55:33.740Z,80.29
2022-09-06T02:56:34.949Z,79.58
2022-09-06T02:57:34.853Z,79.48
2022-09-06T02:58:34.906Z,80.22
2022-09-06T02:59:34.887Z,81.10
2022-09-06T03:00:34.885Z,81.13
2022-09-06T03:01:35.006Z,80.69
2022-09-06T03:02:35.050Z,80.79
2022-09-06T03:03:34.801Z,80.79
2022-09-06T03:04:34.841Z,81.20
2022-09-06T03:05:34.828Z,81.20
2022-09-06T03:06:34.820Z,80.90
2022-09-06T03:07:34.799Z,80.79
2022-09-06T03:08:34.842Z,80.59
2022-09-06T03:09:34.824Z,81.10
2022-09-06T03:10:34.772Z,80.59
2022-09-06T03:11:34.788Z,81.30
2022-09-06T03:12:34.742Z,81.23
2022-09-06T03:13:34.741Z,80.79
2022-09-06T03:14:34.745Z,80.79
2022-09-06T03:15:34.717Z,80.45
2022-09-06T03:16:34.790Z,80.59
2022-09-06T03:17:34.693Z,80.59
2022-09-06T03:18:34.691Z,80.29
2022-09-06T03:19:34.761Z,80.59
2022-09-06T03:20:37.086Z,81.34
2022-09-06T03:21:35.670Z,81.34
2022-09-06T03:22:34.635Z,81.23
2022-09-06T03:23:34.653Z,80.93
2022-09-06T03:24:34.588Z,80.83
2022-09-06T03:25:34.631Z,81.13
2022-09-06T03:26:34.615Z,81.94
2022-09-06T03:27:34.630Z,82.14
2022-09-06T03:28:34.588Z,81.94
2022-09-06T03:29:34.584Z,81.94
2022-09-06T03:30:34.607Z,81.10
2022-09-06T03:31:34.592Z,80.79
2022-09-06T03:32:34.548Z,80.79
2022-09-06T03:33:34.514Z,81.30
2022-09-06T03:34:34.544Z,80.59
2022-09-06T03:35:34.485Z,82.01
2022-09-06T03:36:34.576Z,81.20
2022-09-06T03:37:34.483Z,80.59
2022-09-06T03:38:34.459Z,80.05
2022-09-06T03:39:34.493Z,79.54
2022-09-06T03:40:34.479Z,79.94
2022-09-06T03:41:34.496Z,79.34
2022-09-06T03:42:34.442Z,80.35
2022-09-06T03:43:34.421Z,80.31
2022-09-06T03:44:34.386Z,79.71
2022-09-06T03:45:34.463Z,79.91
2022-09-06T03:46:34.465Z,78.84
2022-09-06T03:47:34.402Z,79.04
2022-09-06T03:48:34.407Z,79.24
2022-09-06T03:49:34.377Z,80.25
2022-09-06T03:50:34.369Z,80.25
2022-09-06T03:51:34.393Z,80.35
2022-09-06T03:52:34.363Z,79.74
2022-09-06T03:53:34.284Z,79.74
2022-09-06T03:54:34.377Z,79.04
2022-09-06T03:55:34.333Z,79.41
2022-09-06T03:56:34.485Z,78.94
2022-09-06T03:57:34.303Z,78.84
2022-09-06T03:58:34.303Z,79.74
2022-09-06T03:59:34.316Z,80.08
2022-09-06T04:00:34.260Z,80.39
2022-09-06T04:01:34.292Z,79.79
2022-09-06T04:02:34.281Z,80.59
2022-09-06T04:03:34.233Z,80.39
2022-09-06T04:04:34.257Z,80.79
2022-09-06T04:05:34.229Z,80.69
2022-09-06T04:06:34.203Z,81.20
2022-09-06T04:07:34.219Z,80.93
2022-09-06T04:08:34.201Z,81.98
2022-09-06T04:09:34.131Z,82.28
2022-09-06T04:10:34.174Z,82.28
2022-09-06T04:11:34.133Z,83.13
2022-09-06T04:12:34.199Z,83.50
2022-09-06T04:13:34.097Z,83.60
2022-09-06T04:14:34.158Z,83.80
2022-09-06T04:15:34.222Z,83.70
2022-09-06T04:16:34.140Z,83.70
2022-09-06T04:17:34.064Z,83.44
2022-09-06T04:18:34.158Z,84.25
2022-09-06T04:19:34.193Z,84.14
2022-09-06T04:20:34.056Z,84.55
2022-09-06T04:21:34.035Z,84.04
2022-09-06T04:22:34.036Z,83.50
2022-09-06T04:23:39.136Z,83.09
2022-09-06T04:24:36.015Z,82.24
2022-09-06T04:25:34.033Z,82.45
2022-09-06T04:26:34.000Z,82.01
2022-09-06T04:27:33.979Z,82.01
2022-09-06T04:28:33.982Z,80.99
2022-09-06T04:29:33.994Z,81.30
2022-09-06T04:30:33.950Z,80.59
2022-09-06T04:31:34.024Z,80.35
2022-09-06T04:32:33.995Z,79.74
2022-09-06T04:33:33.941Z,80.05
2022-09-06T04:34:33.913Z,80.45
2022-09-06T04:35:33.899Z,79.85
2022-09-06T04:36:33.976Z,80.15
2022-09-06T04:37:33.949Z,80.45
2022-09-06T04:38:33.853Z,80.76
2022-09-06T04:39:33.891Z,80.51
2022-09-06T04:40:33.872Z,80.51
2022-09-06T04:41:33.828Z,80.45
2022-09-06T04:42:33.863Z,80.31
2022-09-06T04:43:33.851Z,80.31
2022-09-06T04:44:33.799Z,80.41
2022-09-06T04:45:33.831Z,80.41
2022-09-06T04:46:33.794Z,78.70
2022-09-06T04:47:33.797Z,78.70
2022-09-06T04:48:33.788Z,79.10
2022-09-06T04:49:33.760Z,79.10
2022-09-06T04:50:33.743Z,79.21
2022-09-06T04:51:33.742Z,79.21
2022-09-06T04:52:33.768Z,79.61
2022-09-06T04:53:33.713Z,78.80
2022-09-06T04:54:33.740Z,78.84
2022-09-06T04:55:33.700Z,78.88
2022-09-06T04:56:33.690Z,79.79
2022-09-06T04:57:33.656Z,80.73
2022-09-06T04:58:33.649Z,81.48
2022-09-06T04:59:33.673Z,82.18
2022-09-06T05:00:33.641Z,82.53
2022-09-06T05:01:33.703Z,83.03
2022-09-06T05:02:33.729Z,83.44
2022-09-06T05:03:33.630Z,83.98
2022-09-06T05:04:33.625Z,84.89
2022-09-06T05:05:33.684Z,84.59
2022-09-06T05:06:33.604Z,85.19
2022-09-06T05:07:33.587Z,85.19
2022-09-06T05:08:33.544Z,85.39
2022-09-06T05:09:33.553Z,85.16
2022-09-06T05:10:33.537Z,83.40
2022-09-06T05:11:33.628Z,82.79
2022-09-06T05:12:33.564Z,82.89
2022-09-06T05:13:33.518Z,82.75
2022-09-06T05:14:33.521Z,82.55
2022-09-06T05:15:33.489Z,82.35
2022-09-06T05:16:33.536Z,82.45
2022-09-06T05:17:33.535Z,81.34
2022-09-06T05:18:33.491Z,82.14
2022-09-06T05:19:33.477Z,82.21
2022-09-06T05:20:33.457Z,82.31
2022-09-06T05:21:33.414Z,80.59
2022-09-06T05:22:33.515Z,81.30
2022-09-06T05:23:33.475Z,82.01
2022-09-06T05:24:33.372Z,82.31
2022-09-06T05:25:33.427Z,82.01
2022-09-06T05:26:33.393Z,81.80
2022-09-06T05:27:33.413Z,81.26
2022-09-06T05:28:33.362Z,81.26
2022-09-06T05:29:33.377Z,81.05
2022-09-06T05:30:33.375Z,80.55
2022-09-06T05:31:33.456Z,80.25
2022-09-06T05:32:33.358Z,80.35
2022-09-06T05:33:33.359Z,79.50
2022-09-06T05:34:33.311Z,79.81
2022-09-06T05:35:33.281Z,79.81
2022-09-06T05:36:33.292Z,79.81
2022-09-06T05:37:33.324Z,79.10
2022-09-06T05:38:33.544Z,79.47
2022-09-06T05:39:33.390Z,79.06
2022-09-06T05:40:33.269Z,78.70
2022-09-06T05:41:33.281Z,78.66
2022-09-06T05:42:33.259Z,79.81
2022-09-06T05:43:33.221Z,80.51
2022-09-06T05:44:33.166Z,80.31
2022-09-06T05:45:33.238Z,80.31
2022-09-06T05:46:33.199Z,80.31
2022-09-06T05:47:33.174Z,80.31
2022-09-06T05:48:36.841Z,80.31
2022-09-06T05:49:34.172Z,80.31
2022-09-06T05:50:33.119Z,80.76
2022-09-06T05:51:33.139Z,81.16
2022-09-06T05:52:33.122Z,81.26
2022-09-06T05:53:33.099Z,81.12
2022-09-06T05:54:33.103Z,81.16
2022-09-06T05:55:33.062Z,81.05
2022-09-06T05:56:33.048Z,82.07
2022-09-06T05:57:33.107Z,82.27
2022-09-06T05:58:33.055Z,82.51
2022-09-06T05:59:33.007Z,81.96
2022-09-06T06:00:33.440Z,80.92
2022-09-06T06:01:33.183Z,81.32
2022-09-06T06:02:33.130Z,80.92
2022-09-06T06:03:33.022Z,80.58
2022-09-06T06:04:33.003Z,80.68
2022-09-06T06:05:33.022Z,80.38
2022-09-06T06:06:32.970Z,80.18
2022-09-06T06:07:33.000Z,80.18
2022-09-06T06:08:32.954Z,79.67
2022-09-06T06:09:32.948Z,79.67
2022-09-06T06:10:36.676Z,79.03
2022-09-06T06:11:34.966Z,79.03
2022-09-06T06:12:32.915Z,79.36
2022-09-06T06:13:32.931Z,79.63
2022-09-06T06:14:32.917Z,79.73
2022-09-06T06:15:33.210Z,80.13
2022-09-06T06:16:32.988Z,80.44
2022-09-06T06:17:32.924Z,80.84
2022-09-06T06:18:32.897Z,81.18
2022-09-06T06:19:32.823Z,81.15
2022-09-06T06:20:32.890Z,80.24
2022-09-06T06:21:32.788Z,80.33
2022-09-06T06:22:32.813Z,80.24
2022-09-06T06:23:32.784Z,79.90
2022-09-06T06:24:32.794Z,78.59
2022-09-06T06:25:32.819Z,78.79
2022-09-06T06:26:32.767Z,79.25
2022-09-06T06:27:32.746Z,78.55
2022-09-06T06:28:32.733Z,78.15
2022-09-06T06:29:32.720Z,78.01
2022-09-06T06:30:32.723Z,78.11
2022-09-06T06:31:32.873Z,78.21
2022-09-06T06:32:32.741Z,77.91
2022-09-06T06:33:32.760Z,77.50
2022-09-06T06:34:32.658Z,78.01
2022-09-06T06:35:35.148Z,78.21
2022-09-06T06:36:32.702Z,78.91
2022-09-06T06:37:32.677Z,78.51
2022-09-06T06:38:32.610Z,78.11
2022-09-06T06:39:32.725Z,78.21
2022-09-06T06:40:32.632Z,77.77
2022-09-06T06:41:32.618Z,77.67
2022-09-06T06:42:32.584Z,77.37
2022-09-06T06:43:33.564Z,77.47
2022-09-06T06:44:32.559Z,77.37
2022-09-06T06:45:32.590Z,76.63
2022-09-06T06:46:32.541Z,76.53
2022-09-06T06:47:32.494Z,76.09
2022-09-06T06:48:32.534Z,76.09
2022-09-06T06:49:32.513Z,75.95
2022-09-06T06:50:32.509Z,76.05
2022-09-06T06:51:32.500Z,75.65
2022-09-06T06:52:32.480Z,75.79
2022-09-06T06:53:32.487Z,75.55
2022-09-06T06:54:32.439Z,75.25
2022-09-06T06:55:32.458Z,74.31
2022-09-06T06:56:32.446Z,74.21
2022-09-06T06:57:32.429Z,74.81
2022-09-06T06:58:32.413Z,74.68
2022-09-06T06:59:32.386Z,73.94
2022-09-06T07:00:32.358Z,73.24
2022-09-06T07:01:32.480Z,72.33
2022-09-06T07:02:32.359Z,72.83
2022-09-06T07:03:34.599Z,72.53
2022-09-06T07:04:37.040Z,72.13
2022-09-06T07:09:07.124Z,71.50
2022-09-06T07:11:57.306Z,71.39
2022-09-06T07:15:44.117Z,71.03
2022-09-06T07:16:50.585Z,70.03
2022-09-06T07:22:22.546Z,70.03
2022-09-06T07:26:09.488Z,70.09
2022-09-06T07:30:24.576Z,70.59
2022-09-06T07:33:13.670Z,69.89
2022-09-06T07:36:30.851Z,69.16
2022-09-06T07:37:30.981Z,69.46
2022-09-06T07:38:38.529Z,69.26
2022-09-06T07:44:16.889Z,69.36
2022-09-06T07:45:24.538Z,69.76
2022-09-06T07:49:34.695Z,68.89
2022-09-06T07:53:45.247Z,66.59
2022-09-06T07:55:18.974Z,66.36
2022-09-06T07:56:20.134Z,66.16
2022-09-06T08:00:51.038Z,65.13
2022-09-06T08:06:08.672Z,64.93
2022-09-06T08:09:11.134Z,66.26
2022-09-06T08:10:19.744Z,66.06
2022-09-06T08:13:54.947Z,65.63
2022-09-06T08:15:02.633Z,64.93
2022-09-06T08:19:07.942Z,64.03
2022-09-06T08:24:19.846Z,63.40
2022-09-06T08:29:02.495Z,62.24
2022-09-06T08:33:36.833Z,62.01
2022-09-06T08:41:09.799Z,59.39
2022-09-06T08:42:09.862Z,59.19
2022-09-06T08:43:09.811Z,58.47
2022-09-06T08:45:10.815Z,59.30
2022-09-06T08:46:11.133Z,58.72
2022-09-06T08:47:10.953Z,59.35
2022-09-06T08:48:10.932Z,59.12
2022-09-06T08:49:10.932Z,59.59
2022-09-06T08:50:10.971Z,59.82
2022-09-06T08:51:10.950Z,60.12
2022-09-06T08:52:10.920Z,60.02
2022-09-06T08:53:17.162Z,60.62
2022-09-06T08:56:31.217Z,59.49
2022-09-06T08:57:31.248Z,59.77
2022-09-06T08:58:31.219Z,58.67
2022-09-06T08:59:31.189Z,57.77
2022-09-06T09:00:31.214Z,58.07
2022-09-06T09:01:31.211Z,57.67
2022-09-06T09:02:31.175Z,57.57
2022-09-06T09:03:31.151Z,57.00
2022-09-06T09:04:32.031Z,58.70
2022-09-06T09:05:31.197Z,58.70
2022-09-06T09:06:31.150Z,57.70
2022-09-06T09:07:32.318Z,56.48
2022-09-06T09:08:32.324Z,58.07
2022-09-06T09:09:32.313Z,55.85
2022-09-06T09:10:32.298Z,55.85
2022-09-06T09:11:32.272Z,56.23
2022-09-06T09:12:32.259Z,54.90
2022-09-06T09:13:32.294Z,55.00
2022-09-06T09:14:32.258Z,54.80
2022-09-06T09:15:33.589Z,54.63
2022-09-06T09:16:32.386Z,55.00
2022-09-06T09:17:32.213Z,55.00
2022-09-06T09:18:32.232Z,54.90
2022-09-06T09:19:32.187Z,52.91
2022-09-06T09:20:32.160Z,53.69
2022-09-06T09:21:32.241Z,53.69
2022-09-06T09:22:32.127Z,53.46
2022-09-06T09:23:32.158Z,52.44
2022-09-06T09:24:32.177Z,52.76
2022-09-06T09:25:32.152Z,53.44
2022-09-06T09:26:32.178Z,51.32
2022-09-06T09:27:32.071Z,51.25
2022-09-06T09:28:32.102Z,52.61
2022-09-06T09:29:36.139Z,52.51
2022-09-06T09:30:49.059Z,52.19
2022-09-06T09:31:34.150Z,50.90
2022-09-06T09:32:32.025Z,49.21
2022-09-06T09:33:32.058Z,49.54
2022-09-06T09:34:32.060Z,49.24
2022-09-06T09:35:32.027Z,50.23
2022-09-06T09:36:32.065Z,50.33
2022-09-06T09:37:48.002Z,50.93
2022-09-06T09:38:34.033Z,51.32
2022-09-06T09:39:32.036Z,51.42
2022-09-06T09:40:31.977Z,51.23
2022-09-06T09:41:31.993Z,51.03
2022-09-06T09:42:31.947Z,51.32
2022-09-06T09:43:32.734Z,51.75
2022-09-06T09:44:31.936Z,51.32
2022-09-06T09:45:31.922Z,51.62
2022-09-06T09:46:32.052Z,51.30
2022-09-06T09:47:31.915Z,50.51
2022-09-06T09:48:31.860Z,49.51
2022-09-06T09:49:31.896Z,49.21
2022-09-06T09:50:31.886Z,49.19
2022-09-06T09:51:31.895Z,50.16
2022-09-06T09:52:31.925Z,49.76
2022-09-06T09:53:31.860Z,51.15
2022-09-06T09:54:31.889Z,50.23
2022-09-06T09:55:31.847Z,49.22
2022-09-06T09:56:31.825Z,48.92
2022-09-06T09:57:31.867Z,48.33
2022-09-06T09:58:31.817Z,48.53
2022-09-06T09:59:31.828Z,48.23
2022-09-06T10:00:31.873Z,49.00
2022-09-06T10:01:31.806Z,48.30
2022-09-06T10:02:31.837Z,49.69
2022-09-06T10:03:31.887Z,48.11
2022-09-06T10:04:47.017Z,47.39
2022-09-06T10:05:33.788Z,47.39
2022-09-06T10:07:33.690Z,47.27
2022-09-06T10:08:31.685Z,46.97
2022-09-06T10:09:31.713Z,46.18
2022-09-06T10:10:31.675Z,46.38
2022-09-06T10:11:31.744Z,46.38
2022-09-06T10:12:31.745Z,46.88
2022-09-06T10:13:31.664Z,46.55
2022-09-06T10:14:31.727Z,46.66
2022-09-06T10:15:31.717Z,46.36
2022-09-06T10:16:31.734Z,46.66
2022-09-06T10:17:31.663Z,46.23
2022-09-06T10:18:31.620Z,45.76
2022-09-06T10:19:31.662Z,45.64
2022-09-06T10:20:31.625Z,45.45
2022-09-06T10:21:33.220Z,45.45
2022-09-06T10:22:31.610Z,44.46
2022-09-06T10:24:33.569Z,45.35
2022-09-06T10:25:31.550Z,43.15
2022-09-06T10:26:31.509Z,44.26
2022-09-06T10:27:31.589Z,43.65
2022-09-06T10:28:31.512Z,43.84
2022-09-06T10:29:31.539Z,43.87
2022-09-06T10:30:31.579Z,45.42
2022-09-06T10:31:31.581Z,43.73
2022-09-06T10:32:31.494Z,42.74
2022-09-06T10:33:31.494Z,43.03
2022-09-06T10:34:31.470Z,43.11
2022-09-06T10:35:31.415Z,42.61
2022-09-06T10:36:31.461Z,43.13
2022-09-06T10:37:31.485Z,44.42
2022-09-06T10:38:31.436Z,44.42
2022-09-06T10:39:31.482Z,43.31
2022-09-06T10:40:31.405Z,41.93
2022-09-06T10:41:31.437Z,42.83
2022-09-06T10:42:31.413Z,43.23
2022-09-06T10:43:31.472Z,43.03
2022-09-06T10:44:31.340Z,41.77
2022-09-06T10:45:31.376Z,43.73
2022-09-06T10:46:31.410Z,42.82
2022-09-06T10:47:31.344Z,41.43
2022-09-06T10:48:31.391Z,42.32
2022-09-06T10:49:31.325Z,42.79
2022-09-06T10:50:31.468Z,41.39
2022-09-06T10:51:31.322Z,40.58
2022-09-06T10:52:31.305Z,39.89
2022-09-06T10:53:31.264Z,39.50
2022-09-06T10:54:31.265Z,40.01
2022-09-06T10:55:31.230Z,40.98
2022-09-06T10:56:31.287Z,40.08
2022-09-06T11:00:31.229Z,38.40
2022-09-06T11:01:31.209Z,39.66
2022-09-06T11:02:31.256Z,37.12
2022-09-06T11:04:33.504Z,39.39
2022-09-06T11:05:38.657Z,39.09
2022-09-06T11:06:33.469Z,38.71
2022-09-06T11:07:31.139Z,38.91
2022-09-06T11:08:47.004Z,38.32
2022-09-06T11:09:33.244Z,38.62
2022-09-06T11:10:31.115Z,38.12
2022-09-06T11:11:31.145Z,37.91
2022-09-06T11:12:31.090Z,38.12
2022-09-06T11:13:31.061Z,38.91
2022-09-06T11:14:31.056Z,38.22
2022-09-06T11:15:31.096Z,39.70
2022-09-06T11:16:31.171Z,39.01
2022-09-06T11:17:31.038Z,37.22
2022-09-06T11:18:31.068Z,38.30
2022-09-06T11:19:31.006Z,37.43
2022-09-06T11:20:32.310Z,38.71
2022-09-06T11:21:32.008Z,37.32
2022-09-06T11:22:31.123Z,38.28
2022-09-06T11:23:31.004Z,37.49
2022-09-06T11:24:30.957Z,37.51
2022-09-06T11:25:30.937Z,38.49
2022-09-06T11:26:30.994Z,38.01
2022-09-06T11:27:30.949Z,39.07
2022-09-06T11:28:30.961Z,37.79
2022-09-06T11:29:30.997Z,37.10
2022-09-06T11:30:30.890Z,37.59
2022-09-06T11:32:32.903Z,37.51
2022-09-06T11:33:30.943Z,37.30
2022-09-06T11:34:30.846Z,37.40
2022-09-06T11:35:30.887Z,37.48
2022-09-06T11:36:30.981Z,37.26
2022-09-06T11:37:30.890Z,37.05
2022-09-06T11:38:30.831Z,35.85
2022-09-06T11:40:32.847Z,35.87
2022-09-06T11:41:30.903Z,36.74
2022-09-06T11:42:30.777Z,36.93
2022-09-06T11:43:30.795Z,36.44
2022-09-06T11:44:30.820Z,36.97
2022-09-06T11:45:30.781Z,36.55
2022-09-06T11:46:30.857Z,36.24
2022-09-06T11:47:30.767Z,36.15
2022-09-06T11:48:30.747Z,35.64
2022-09-06T11:49:30.703Z,35.05
2022-09-06T11:50:30.752Z,35.64
2022-09-06T11:51:30.776Z,36.15
2022-09-06T11:52:30.722Z,35.93
2022-09-06T11:53:30.804Z,35.74
2022-09-06T11:54:30.698Z,35.03
2022-09-06T11:55:30.695Z,34.93
2022-09-06T11:56:30.637Z,34.72
2022-09-06T11:57:30.679Z,34.92
2022-09-06T11:58:30.650Z,34.54
2022-09-06T11:59:30.701Z,34.64
2022-09-06T12:00:30.657Z,34.74
2022-09-06T12:01:30.684Z,34.36
2022-09-06T12:02:30.750Z,35.85
2022-09-06T12:04:32.741Z,35.47
2022-09-06T12:05:30.617Z,36.28
2022-09-06T12:06:30.606Z,37.07
2022-09-06T12:07:30.590Z,35.97
2022-09-06T12:08:30.587Z,37.05
2022-09-06T12:09:30.530Z,35.87
2022-09-06T12:10:30.527Z,36.59
2022-09-06T12:11:30.748Z,36.88
2022-09-06T12:12:31.553Z,36.97
2022-09-06T12:13:30.517Z,36.49
2022-09-06T12:14:30.497Z,35.99
2022-09-06T12:15:30.557Z,35.69
2022-09-06T12:16:30.550Z,35.69
2022-09-06T12:17:30.527Z,36.38
2022-09-06T12:18:30.421Z,36.67
2022-09-06T12:19:30.446Z,36.10
2022-09-06T12:20:30.406Z,36.11
2022-09-06T12:21:30.459Z,36.49
2022-09-06T12:22:30.445Z,36.57
2022-09-06T12:23:30.411Z,36.07
2022-09-06T12:24:30.417Z,35.16
2022-09-06T12:25:30.438Z,34.46
2022-09-06T12:26:30.421Z,34.93
2022-09-06T12:27:30.406Z,34.52
2022-09-06T12:28:30.449Z,35.33
2022-09-06T12:29:30.399Z,35.03
2022-09-06T12:30:30.379Z,34.23
2022-09-06T12:31:30.408Z,33.54
2022-09-06T12:32:32.619Z,33.43
2022-09-06T12:33:32.344Z,34.51
2022-09-06T12:34:30.319Z,33.04
2022-09-06T12:36:32.317Z,32.25
2022-09-06T12:37:30.318Z,32.34
2022-09-06T12:38:30.396Z,32.04
2022-09-06T12:39:30.299Z,32.43
2022-09-06T12:40:30.279Z,32.74
2022-09-06T12:41:30.254Z,31.76
2022-09-06T12:42:30.260Z,32.53
2022-09-06T12:43:30.248Z,33.61
2022-09-06T12:44:30.248Z,32.23
2022-09-06T12:45:30.241Z,32.81
2022-09-06T12:46:30.263Z,32.12
2022-09-06T12:47:30.208Z,32.32
2022-09-06T12:48:30.369Z,31.13
2022-09-06T12:49:30.182Z,31.73
2022-09-06T12:50:30.190Z,31.32
2022-09-06T12:51:30.185Z,30.93
2022-09-06T12:52:30.165Z,31.41
2022-09-06T12:53:30.152Z,31.78
2022-09-06T12:54:30.158Z,31.68
2022-09-06T12:55:30.160Z,30.88
2022-09-06T12:56:30.086Z,31.08
2022-09-06T12:57:30.158Z,31.48
2022-09-06T12:58:30.040Z,30.97
2022-09-06T12:59:30.154Z,30.97
2022-09-06T13:00:30.063Z,31.26
2022-09-06T13:01:30.117Z,31.00
2022-09-06T13:02:30.148Z,30.82
2022-09-06T13:03:29.999Z,32.58
2022-09-06T13:04:30.013Z,30.61
2022-09-06T13:05:30.022Z,31.18
2022-09-06T13:06:29.993Z,30.69
2022-09-06T13:07:30.026Z,30.69
2022-09-06T13:08:30.091Z,30.61
2022-09-06T13:09:29.966Z,31.49
2022-09-06T13:10:29.954Z,30.69
2022-09-06T13:11:29.953Z,31.48
2022-09-06T13:12:29.978Z,31.26
2022-09-06T13:13:30.022Z,30.87
2022-09-06T13:14:29.944Z,29.90
2022-09-06T13:15:29.966Z,30.68
2022-09-06T13:16:29.920Z,30.37
2022-09-06T13:17:29.927Z,30.08
2022-09-06T13:18:30.017Z,30.45
2022-09-06T13:19:29.879Z,30.06
2022-09-06T13:20:29.899Z,29.86
2022-09-06T13:21:29.866Z,29.28
2022-09-06T13:22:29.917Z,29.47
2022-09-06T13:23:29.891Z,29.10
2022-09-06T13:24:29.855Z,29.50
2022-09-06T13:25:29.854Z,29.11
2022-09-06T13:26:29.861Z,29.31
2022-09-06T13:27:29.856Z,30.58
2022-09-06T13:28:30.048Z,30.29
2022-09-06T13:29:29.799Z,30.68
2022-09-06T13:30:29.804Z,29.98
2022-09-06T13:31:29.900Z,30.48
2022-09-06T13:32:29.842Z,30.68
2022-09-06T13:33:29.754Z,31.21
2022-09-06T13:34:29.769Z,30.51
2022-09-06T13:35:29.736Z,30.41
2022-09-06T13:36:29.723Z,32.12
2022-09-06T13:37:29.792Z,30.62
2022-09-06T13:38:29.855Z,30.91
2022-09-06T13:39:29.767Z,30.12
2022-09-06T13:40:29.700Z,30.61
2022-09-06T13:41:29.764Z,30.41
2022-09-06T13:43:03.213Z,30.88
2022-09-06T13:43:29.689Z,30.58
2022-09-06T13:44:29.692Z,30.20
2022-09-06T13:45:29.702Z,30.40
2022-09-06T13:46:29.762Z,30.30
2022-09-06T13:47:29.694Z,30.38
2022-09-06T13:48:29.651Z,29.21
2022-09-06T13:49:29.611Z,29.39
2022-09-06T13:50:29.648Z,30.16
2022-09-06T13:51:29.628Z,28.78
2022-09-06T13:52:29.602Z,29.59
2022-09-06T13:53:29.733Z,29.17
2022-09-06T13:54:29.610Z,27.50
2022-09-06T13:55:29.626Z,27.58
2022-09-06T13:56:29.525Z,27.90
2022-09-06T13:57:29.543Z,27.19
2022-09-06T13:58:29.792Z,27.18
2022-09-06T13:59:29.517Z,27.95
2022-09-06T14:00:29.537Z,27.15
2022-09-06T14:01:29.557Z,26.48
2022-09-06T14:02:29.590Z,27.65
2022-09-06T14:03:29.548Z,27.18
2022-09-06T14:04:29.485Z,27.69
2022-09-06T14:05:29.539Z,28.69
2022-09-06T14:06:31.471Z,28.52
2022-09-06T14:07:29.583Z,29.63
2022-09-06T14:08:43.671Z,29.90
2022-09-06T14:09:31.467Z,29.59
2022-09-06T14:10:29.410Z,29.21
2022-09-06T14:11:29.470Z,30.29
2022-09-06T14:12:29.478Z,29.44
2022-09-06T14:13:29.445Z,29.93
2022-09-06T14:14:29.446Z,29.74
2022-09-06T14:15:29.488Z,30.72
2022-09-06T14:16:29.347Z,30.36
2022-09-06T14:17:29.410Z,30.98
2022-09-06T14:18:29.534Z,30.60
2022-09-06T14:19:29.336Z,30.62
2022-09-06T14:20:29.379Z,31.70
2022-09-06T14:21:29.347Z,31.99
2022-09-06T14:22:29.429Z,30.68
2022-09-06T14:23:29.347Z,30.78
2022-09-06T14:24:29.402Z,31.38
2022-09-06T14:25:29.365Z,30.62
2022-09-06T14:26:29.305Z,31.30
2022-09-06T14:27:29.324Z,31.19
2022-09-06T14:28:29.361Z,31.58
2022-09-06T14:29:29.351Z,31.29
2022-09-06T14:30:29.377Z,31.67
2022-09-06T14:31:29.356Z,31.58
2022-09-06T14:32:29.307Z,31.40
2022-09-06T14:33:29.242Z,31.61
2022-09-06T14:34:29.293Z,32.92
2022-09-06T14:35:29.232Z,33.03
2022-09-06T14:36:29.229Z,33.23
2022-09-06T14:37:29.254Z,33.34
2022-09-06T14:38:29.436Z,33.03
2022-09-06T14:39:29.259Z,33.72
2022-09-06T14:40:29.201Z,33.23
2022-09-06T14:41:29.158Z,32.72
2022-09-06T14:42:29.368Z,33.20
2022-09-06T14:43:29.115Z,32.90
2022-09-06T14:44:29.125Z,32.20
2022-09-06T14:45:29.105Z,32.90
2022-09-06T14:46:29.217Z,32.71
2022-09-06T14:47:29.097Z,32.31
2022-09-06T14:48:29.187Z,32.43
2022-09-06T14:49:29.078Z,32.04
2022-09-06T14:50:29.106Z,32.53
2022-09-06T14:51:29.112Z,32.82
2022-09-06T14:52:29.161Z,33.12
2022-09-06T14:53:39.884Z,32.71
2022-09-06T14:54:34.970Z,32.40
2022-09-06T14:55:29.059Z,31.71
2022-09-06T14:56:29.102Z,32.17
2022-09-06T14:57:29.059Z,31.58
2022-09-06T14:58:31.533Z,31.29
2022-09-06T14:59:30.236Z,31.68
2022-09-06T15:00:29.144Z,31.48
2022-09-06T15:01:31.036Z,31.97
2022-09-06T15:02:29.142Z,31.55
2022-09-06T15:03:29.215Z,31.31
2022-09-06T15:04:28.970Z,30.02
2022-09-06T15:05:29.023Z,28.79
2022-09-06T15:06:29.037Z,27.87
2022-09-06T15:07:29.090Z,27.68
2022-09-06T15:08:28.913Z,26.69
2022-09-06T15:09:28.994Z,27.47
2022-09-06T15:10:28.916Z,27.23
2022-09-06T15:11:28.917Z,26.22
2022-09-06T15:12:28.975Z,25.41
2022-09-06T15:13:29.131Z,26.32
2022-09-06T15:14:28.865Z,27.05
2022-09-06T15:15:29.312Z,26.89
2022-09-06T15:16:28.927Z,27.18
2022-09-06T15:17:28.947Z,27.47
2022-09-06T15:18:29.171Z,25.98
2022-09-06T15:19:29.143Z,26.48
2022-09-06T15:20:28.867Z,27.66
2022-09-06T15:21:29.186Z,28.03
2022-09-06T15:22:28.972Z,26.32
2022-09-06T15:23:29.032Z,25.90
2022-09-06T15:24:29.167Z,24.93
2022-09-06T15:25:28.875Z,26.34
2022-09-06T15:26:28.882Z,26.84
2022-09-06T15:27:28.793Z,27.65
2022-09-06T15:28:28.744Z,27.78
2022-09-06T15:29:28.883Z,27.79
2022-09-06T15:30:28.885Z,28.20
2022-09-06T15:31:28.998Z,29.31
2022-09-06T15:32:28.843Z,27.50
2022-09-06T15:33:28.842Z,27.64
2022-09-06T15:34:28.719Z,25.75
2022-09-06T15:35:28.766Z,25.71
2022-09-06T15:36:28.713Z,25.01
2022-09-06T15:37:28.686Z,25.32
2022-09-06T15:38:28.710Z,25.74
2022-09-06T15:39:28.731Z,26.17
2022-09-06T15:40:28.667Z,26.78
2022-09-06T15:41:28.666Z,27.79
2022-09-06T15:42:28.670Z,28.58
2022-09-06T15:43:28.715Z,28.32
2022-09-06T15:44:28.630Z,29.00
2022-09-06T15:45:28.656Z,29.13
2022-09-06T15:46:28.877Z,29.14
2022-09-06T15:47:28.625Z,30.32
2022-09-06T15:48:28.605Z,30.74
2022-09-06T15:49:28.807Z,30.15
2022-09-06T15:50:49.968Z,30.44
2022-09-06T15:51:30.647Z,30.67
2022-09-06T15:52:28.625Z,31.76
2022-09-06T15:53:28.673Z,30.99
2022-09-06T15:54:28.557Z,31.89
2022-09-06T15:55:28.546Z,32.18
2022-09-06T15:56:28.664Z,32.28
2022-09-06T15:57:28.560Z,31.99
2022-09-06T15:58:28.599Z,32.28
2022-09-06T15:59:28.554Z,32.30
2022-09-06T16:00:28.586Z,32.68
2022-09-06T16:01:28.627Z,31.68
2022-09-06T16:02:28.537Z,31.77
2022-09-06T16:03:29.055Z,31.68
2022-09-06T16:04:28.614Z,31.09
2022-09-06T16:06:30.448Z,30.44
2022-09-06T16:07:28.449Z,30.72
2022-09-06T16:08:28.553Z,29.53
2022-09-06T16:09:28.436Z,30.41
2022-09-06T16:10:28.379Z,29.91
2022-09-06T16:11:28.430Z,29.81
2022-09-06T16:12:28.420Z,29.55
2022-09-06T16:13:28.369Z,30.54
2022-09-06T16:14:28.375Z,30.75
2022-09-06T16:15:28.412Z,31.06
2022-09-06T16:16:28.571Z,31.35
2022-09-06T16:17:28.399Z,30.88
2022-09-06T16:18:28.482Z,31.50
2022-09-06T16:19:28.309Z,31.60
2022-09-06T16:20:30.565Z,31.81
2022-09-06T16:21:29.271Z,31.63
2022-09-06T16:22:28.374Z,32.31
2022-09-06T16:23:28.341Z,32.61
2022-09-06T16:24:28.297Z,32.72
2022-09-06T16:25:28.258Z,33.03
2022-09-06T16:26:28.273Z,32.84
2022-09-06T16:27:28.237Z,33.03
2022-09-06T16:28:28.482Z,33.25
2022-09-06T16:29:28.254Z,34.31
2022-09-06T16:30:28.265Z,33.84
2022-09-06T16:31:28.216Z,33.74
2022-09-06T16:32:28.273Z,34.44
2022-09-06T16:33:28.191Z,35.03
2022-09-06T16:34:28.183Z,34.46
2022-09-06T16:35:28.159Z,35.15
2022-09-06T16:36:28.141Z,35.05
2022-09-06T16:37:28.215Z,35.05
2022-09-06T16:38:28.230Z,35.25
2022-09-06T16:39:28.183Z,36.35
2022-09-06T16:40:28.118Z,36.36
2022-09-06T16:41:28.088Z,35.97
2022-09-06T16:42:28.144Z,36.57
2022-09-06T16:43:28.099Z,36.88
2022-09-06T16:44:28.091Z,36.48
2022-09-06T16:45:28.120Z,36.98
2022-09-06T16:46:28.074Z,36.58
2022-09-06T16:47:28.085Z,37.07
2022-09-06T16:48:28.258Z,36.98
2022-09-06T16:49:28.056Z,36.58
2022-09-06T16:50:28.006Z,36.88
2022-09-06T16:51:28.053Z,36.57
2022-09-06T16:52:28.002Z,37.07
2022-09-06T16:53:28.066Z,37.66
2022-09-06T16:54:27.991Z,37.27
2022-09-06T16:55:27.993Z,37.57
2022-09-06T16:56:27.958Z,36.98
2022-09-06T16:57:27.990Z,37.07
2022-09-06T16:58:28.175Z,37.47
2022-09-06T16:59:27.953Z,37.57
2022-09-06T17:00:27.924Z,37.07
2022-09-06T17:01:27.921Z,38.18
2022-09-06T17:02:27.952Z,37.19
2022-09-06T17:03:27.964Z,38.57
2022-09-06T17:04:27.900Z,38.29
2022-09-06T17:05:27.868Z,38.20